sensor_id;sensor_type;location;lat;lon;timestamp;temperature;humidity
56234;DHT22;42141;53.240;6.580;2023-02-28T00:00:31;4.80;99.90
56234;DHT22;42141;53.240;6.580;2023-02-28T00:02:57;4.70;99.90
56234;DHT22;42141;53.240;6.580;2023-02-28T00:05:24;4.60;99.90
56234;DHT22;42141;53.240;6.580;2023-02-28T00:07:50;4.70;99.90
56234;DHT22;42141;53.240;6.580;2023-02-28T00:10:27;4.70;99.90
56234;DHT22;42141;53.240;6.580;2023-02-28T00:12:55;4.70;99.90
56234;DHT22;42141;53.240;6.580;2023-02-28T00:15:23;4.60;99.90
56234;DHT22;42141;53.240;6.580;2023-02-28T00:17:49;5.70;99.90
56234;DHT22;42141;53.240;6.580;2023-02-28T00:20:15;4.60;99.90
56234;DHT22;42141;53.240;6.580;2023-02-28T00:22:47;5.30;99.90
56234;DHT22;42141;53.240;6.580;2023-02-28T00:25:15;4.60;99.90
56234;DHT22;42141;53.240;6.580;2023-02-28T00:27:42;4.60;99.90
56234;DHT22;42141;53.240;6.580;2023-02-28T00:30:14;4.60;99.90
56234;DHT22;42141;53.240;6.580;2023-02-28T00:32:40;4.60;99.90
56234;DHT22;42141;53.240;6.580;2023-02-28T00:35:07;4.60;99.90
56234;DHT22;42141;53.240;6.580;2023-02-28T00:37:33;4.60;99.90
56234;DHT22;42141;53.240;6.580;2023-02-28T00:39:59;5.50;99.90
56234;DHT22;42141;53.240;6.580;2023-02-28T00:42:25;4.60;99.90
56234;DHT22;42141;53.240;6.580;2023-02-28T00:44:51;4.60;99.90
56234;DHT22;42141;53.240;6.580;2023-02-28T00:47:16;6.00;99.90
56234;DHT22;42141;53.240;6.580;2023-02-28T00:49:42;5.40;99.90
56234;DHT22;42141;53.240;6.580;2023-02-28T00:52:08;5.80;99.90
56234;DHT22;42141;53.240;6.580;2023-02-28T00:54:33;4.60;99.90
56234;DHT22;42141;53.240;6.580;2023-02-28T00:56:59;4.70;99.90
56234;DHT22;42141;53.240;6.580;2023-02-28T00:59:25;5.10;99.90
56234;DHT22;42141;53.240;6.580;2023-02-28T01:01:51;6.00;99.90
56234;DHT22;42141;53.240;6.580;2023-02-28T01:04:17;4.60;99.90
56234;DHT22;42141;53.240;6.580;2023-02-28T01:06:42;4.60;99.90
56234;DHT22;42141;53.240;6.580;2023-02-28T01:09:09;4.70;99.90
56234;DHT22;42141;53.240;6.580;2023-02-28T01:11:34;5.40;99.90
56234;DHT22;42141;53.240;6.580;2023-02-28T01:14:01;4.90;99.90
56234;DHT22;42141;53.240;6.580;2023-02-28T01:16:27;5.60;99.90
56234;DHT22;42141;53.240;6.580;2023-02-28T01:18:53;6.10;99.90
56234;DHT22;42141;53.240;6.580;2023-02-28T01:21:20;5.10;99.90
56234;DHT22;42141;53.240;6.580;2023-02-28T01:23:46;6.20;99.90
56234;DHT22;42141;53.240;6.580;2023-02-28T01:28:42;4.70;99.90
56234;DHT22;42141;53.240;6.580;2023-02-28T01:31:08;4.70;99.90
56234;DHT22;42141;53.240;6.580;2023-02-28T01:33:35;4.70;99.90
56234;DHT22;42141;53.240;6.580;2023-02-28T01:36:15;4.70;99.90
56234;DHT22;42141;53.240;6.580;2023-02-28T01:38:41;4.70;99.90
56234;DHT22;42141;53.240;6.580;2023-02-28T01:41:09;4.70;99.90
56234;DHT22;42141;53.240;6.580;2023-02-28T01:46:10;5.80;99.90
56234;DHT22;42141;53.240;6.580;2023-02-28T01:48:40;4.70;99.90
56234;DHT22;42141;53.240;6.580;2023-02-28T01:51:17;4.70;99.90
56234;DHT22;42141;53.240;6.580;2023-02-28T01:53:48;4.70;99.90
56234;DHT22;42141;53.240;6.580;2023-02-28T01:56:17;4.70;99.90
56234;DHT22;42141;53.240;6.580;2023-02-28T01:58:51;4.70;99.90
56234;DHT22;42141;53.240;6.580;2023-02-28T02:01:19;4.70;99.90
56234;DHT22;42141;53.240;6.580;2023-02-28T02:03:54;5.20;99.90
56234;DHT22;42141;53.240;6.580;2023-02-28T02:06:22;4.70;99.90
56234;DHT22;42141;53.240;6.580;2023-02-28T02:08:49;4.70;99.90
56234;DHT22;42141;53.240;6.580;2023-02-28T02:11:18;4.70;99.90
56234;DHT22;42141;53.240;6.580;2023-02-28T02:14:55;4.80;99.90
56234;DHT22;42141;53.240;6.580;2023-02-28T02:17:45;4.70;99.90
56234;DHT22;42141;53.240;6.580;2023-02-28T02:36:51;6.20;99.90
56234;DHT22;42141;53.240;6.580;2023-02-28T02:42:09;5.10;99.90
56234;DHT22;42141;53.240;6.580;2023-02-28T02:44:43;4.80;99.90
56234;DHT22;42141;53.240;6.580;2023-02-28T02:47:20;4.80;99.90
56234;DHT22;42141;53.240;6.580;2023-02-28T02:49:50;4.80;99.90
56234;DHT22;42141;53.240;6.580;2023-02-28T02:52:20;4.80;99.90
56234;DHT22;42141;53.240;6.580;2023-02-28T02:54:48;4.80;99.90
56234;DHT22;42141;53.240;6.580;2023-02-28T02:57:32;4.80;99.90
56234;DHT22;42141;53.240;6.580;2023-02-28T03:00:00;4.80;99.90
56234;DHT22;42141;53.240;6.580;2023-02-28T03:02:28;4.80;99.90
56234;DHT22;42141;53.240;6.580;2023-02-28T03:05:04;4.80;99.90
56234;DHT22;42141;53.240;6.580;2023-02-28T03:07:31;4.80;99.90
56234;DHT22;42141;53.240;6.580;2023-02-28T03:09:57;4.80;99.90
56234;DHT22;42141;53.240;6.580;2023-02-28T03:12:41;4.80;99.90
56234;DHT22;42141;53.240;6.580;2023-02-28T03:15:24;4.80;99.90
56234;DHT22;42141;53.240;6.580;2023-02-28T03:18:03;4.80;99.90
56234;DHT22;42141;53.240;6.580;2023-02-28T03:24:02;4.80;99.90
56234;DHT22;42141;53.240;6.580;2023-02-28T03:26:31;4.80;99.90
56234;DHT22;42141;53.240;6.580;2023-02-28T03:29:22;6.30;99.90
56234;DHT22;42141;53.240;6.580;2023-02-28T03:35:45;4.80;99.90
56234;DHT22;42141;53.240;6.580;2023-02-28T03:37:43;4.80;99.90
56234;DHT22;42141;53.240;6.580;2023-02-28T03:40:23;4.80;99.90
56234;DHT22;42141;53.240;6.580;2023-02-28T03:42:57;4.80;99.90
56234;DHT22;42141;53.240;6.580;2023-02-28T03:45:28;4.80;99.90
56234;DHT22;42141;53.240;6.580;2023-02-28T03:48:02;4.70;99.90
56234;DHT22;42141;53.240;6.580;2023-02-28T03:50:41;4.70;99.90
56234;DHT22;42141;53.240;6.580;2023-02-28T03:53:16;6.20;99.90
56234;DHT22;42141;53.240;6.580;2023-02-28T03:56:05;4.70;99.90
56234;DHT22;42141;53.240;6.580;2023-02-28T03:58:44;4.70;99.90
56234;DHT22;42141;53.240;6.580;2023-02-28T04:01:21;6.10;99.90
56234;DHT22;42141;53.240;6.580;2023-02-28T04:03:49;4.60;99.90
56234;DHT22;42141;53.240;6.580;2023-02-28T04:06:18;5.60;99.90
56234;DHT22;42141;53.240;6.580;2023-02-28T04:08:46;5.20;99.90
56234;DHT22;42141;53.240;6.580;2023-02-28T04:13:45;4.40;99.90
56234;DHT22;42141;53.240;6.580;2023-02-28T04:16:11;4.40;99.90
56234;DHT22;42141;53.240;6.580;2023-02-28T04:18:41;4.30;99.90
56234;DHT22;42141;53.240;6.580;2023-02-28T04:21:09;4.30;99.90
56234;DHT22;42141;53.240;6.580;2023-02-28T04:23:35;5.10;99.90
56234;DHT22;42141;53.240;6.580;2023-02-28T04:26:01;4.30;99.90
56234;DHT22;42141;53.240;6.580;2023-02-28T04:28:27;4.20;99.90
56234;DHT22;42141;53.240;6.580;2023-02-28T04:30:57;5.60;99.90
56234;DHT22;42141;53.240;6.580;2023-02-28T04:33:23;3.80;99.90
56234;DHT22;42141;53.240;6.580;2023-02-28T04:35:58;4.20;99.90
56234;DHT22;42141;53.240;6.580;2023-02-28T04:38:24;4.90;99.90
56234;DHT22;42141;53.240;6.580;2023-02-28T04:40:50;4.50;99.90
56234;DHT22;42141;53.240;6.580;2023-02-28T04:43:16;5.30;99.90
56234;DHT22;42141;53.240;6.580;2023-02-28T04:45:41;5.20;99.90
56234;DHT22;42141;53.240;6.580;2023-02-28T04:48:07;4.10;99.90
56234;DHT22;42141;53.240;6.580;2023-02-28T04:50:33;4.10;99.90
56234;DHT22;42141;53.240;6.580;2023-02-28T04:52:59;4.60;99.90
56234;DHT22;42141;53.240;6.580;2023-02-28T04:55:24;5.60;99.90
56234;DHT22;42141;53.240;6.580;2023-02-28T04:57:50;4.10;99.90
56234;DHT22;42141;53.240;6.580;2023-02-28T05:00:16;5.50;99.90
56234;DHT22;42141;53.240;6.580;2023-02-28T05:02:42;4.00;99.90
56234;DHT22;42141;53.240;6.580;2023-02-28T05:05:08;5.50;99.90
56234;DHT22;42141;53.240;6.580;2023-02-28T05:07:34;4.90;99.90
56234;DHT22;42141;53.240;6.580;2023-02-28T05:10:00;3.90;99.90
56234;DHT22;42141;53.240;6.580;2023-02-28T05:12:25;5.20;99.90
56234;DHT22;42141;53.240;6.580;2023-02-28T05:14:51;3.80;99.90
56234;DHT22;42141;53.240;6.580;2023-02-28T05:17:17;3.80;99.90
56234;DHT22;42141;53.240;6.580;2023-02-28T05:19:42;3.70;99.90
56234;DHT22;42141;53.240;6.580;2023-02-28T05:22:14;3.80;99.90
56234;DHT22;42141;53.240;6.580;2023-02-28T05:24:42;3.70;99.90
56234;DHT22;42141;53.240;6.580;2023-02-28T05:27:08;3.70;99.90
56234;DHT22;42141;53.240;6.580;2023-02-28T05:29:34;4.90;99.90
56234;DHT22;42141;53.240;6.580;2023-02-28T05:32:11;3.70;99.90
56234;DHT22;42141;53.240;6.580;2023-02-28T05:34:38;3.70;99.90
56234;DHT22;42141;53.240;6.580;2023-02-28T05:37:05;4.50;99.90
56234;DHT22;42141;53.240;6.580;2023-02-28T05:39:31;3.60;99.90
56234;DHT22;42141;53.240;6.580;2023-02-28T05:41:56;3.60;99.90
56234;DHT22;42141;53.240;6.580;2023-02-28T05:44:23;4.90;99.90
56234;DHT22;42141;53.240;6.580;2023-02-28T05:46:49;4.80;99.90
56234;DHT22;42141;53.240;6.580;2023-02-28T05:49:15;3.60;99.90
56234;DHT22;42141;53.240;6.580;2023-02-28T05:51:41;3.60;99.90
56234;DHT22;42141;53.240;6.580;2023-02-28T05:54:07;4.00;99.90
56234;DHT22;42141;53.240;6.580;2023-02-28T05:56:33;4.40;99.90
56234;DHT22;42141;53.240;6.580;2023-02-28T05:59:04;5.00;99.90
56234;DHT22;42141;53.240;6.580;2023-02-28T06:01:34;3.60;99.90
56234;DHT22;42141;53.240;6.580;2023-02-28T06:04:01;4.50;99.90
56234;DHT22;42141;53.240;6.580;2023-02-28T06:06:28;4.60;99.90
56234;DHT22;42141;53.240;6.580;2023-02-28T06:08:55;3.60;99.90
56234;DHT22;42141;53.240;6.580;2023-02-28T06:11:21;3.60;99.90
56234;DHT22;42141;53.240;6.580;2023-02-28T06:13:54;3.90;99.90
56234;DHT22;42141;53.240;6.580;2023-02-28T06:16:21;3.60;99.90
56234;DHT22;42141;53.240;6.580;2023-02-28T06:18:47;5.00;99.90
56234;DHT22;42141;53.240;6.580;2023-02-28T06:21:12;3.60;99.90
56234;DHT22;42141;53.240;6.580;2023-02-28T06:23:38;5.00;99.90
56234;DHT22;42141;53.240;6.580;2023-02-28T06:26:04;5.00;99.90
56234;DHT22;42141;53.240;6.580;2023-02-28T06:28:30;3.60;99.90
56234;DHT22;42141;53.240;6.580;2023-02-28T06:30:56;3.60;99.90
56234;DHT22;42141;53.240;6.580;2023-02-28T06:33:22;3.50;99.90
56234;DHT22;42141;53.240;6.580;2023-02-28T06:35:50;3.50;99.90
56234;DHT22;42141;53.240;6.580;2023-02-28T06:38:16;3.60;99.90
56234;DHT22;42141;53.240;6.580;2023-02-28T06:40:44;4.60;99.90
56234;DHT22;42141;53.240;6.580;2023-02-28T06:43:10;3.50;99.90
56234;DHT22;42141;53.240;6.580;2023-02-28T06:45:42;3.40;99.90
56234;DHT22;42141;53.240;6.580;2023-02-28T06:48:08;3.40;99.90
56234;DHT22;42141;53.240;6.580;2023-02-28T06:50:35;3.40;99.90
56234;DHT22;42141;53.240;6.580;2023-02-28T06:53:01;3.40;99.90
56234;DHT22;42141;53.240;6.580;2023-02-28T06:55:27;3.40;99.90
56234;DHT22;42141;53.240;6.580;2023-02-28T06:57:52;3.30;99.90
56234;DHT22;42141;53.240;6.580;2023-02-28T07:00:20;4.60;99.90
56234;DHT22;42141;53.240;6.580;2023-02-28T07:02:46;3.30;99.90
56234;DHT22;42141;53.240;6.580;2023-02-28T07:05:12;3.20;99.90
56234;DHT22;42141;53.240;6.580;2023-02-28T07:07:38;3.20;99.90
56234;DHT22;42141;53.240;6.580;2023-02-28T07:10:06;3.20;99.90
56234;DHT22;42141;53.240;6.580;2023-02-28T07:12:32;3.10;99.90
56234;DHT22;42141;53.240;6.580;2023-02-28T07:14:58;3.10;99.90
56234;DHT22;42141;53.240;6.580;2023-02-28T07:17:23;3.10;99.90
56234;DHT22;42141;53.240;6.580;2023-02-28T07:19:49;3.20;99.90
56234;DHT22;42141;53.240;6.580;2023-02-28T07:22:15;4.60;99.90
56234;DHT22;42141;53.240;6.580;2023-02-28T07:24:41;3.20;99.90
56234;DHT22;42141;53.240;6.580;2023-02-28T07:27:06;3.20;99.90
56234;DHT22;42141;53.240;6.580;2023-02-28T07:29:32;4.20;99.90
56234;DHT22;42141;53.240;6.580;2023-02-28T07:31:57;3.20;99.90
56234;DHT22;42141;53.240;6.580;2023-02-28T07:34:23;4.60;99.90
56234;DHT22;42141;53.240;6.580;2023-02-28T07:36:55;4.10;99.90
56234;DHT22;42141;53.240;6.580;2023-02-28T07:39:21;3.30;99.90
56234;DHT22;42141;53.240;6.580;2023-02-28T07:41:47;4.40;99.90
56234;DHT22;42141;53.240;6.580;2023-02-28T07:44:13;3.30;99.90
56234;DHT22;42141;53.240;6.580;2023-02-28T07:46:39;3.30;99.90
56234;DHT22;42141;53.240;6.580;2023-02-28T07:49:05;3.40;99.90
56234;DHT22;42141;53.240;6.580;2023-02-28T07:51:31;3.30;99.90
56234;DHT22;42141;53.240;6.580;2023-02-28T07:53:57;3.60;99.90
56234;DHT22;42141;53.240;6.580;2023-02-28T07:56:23;3.40;99.90
56234;DHT22;42141;53.240;6.580;2023-02-28T07:58:49;3.40;99.90
56234;DHT22;42141;53.240;6.580;2023-02-28T08:01:14;3.80;99.90
56234;DHT22;42141;53.240;6.580;2023-02-28T08:03:40;3.90;99.90
56234;DHT22;42141;53.240;6.580;2023-02-28T08:06:11;3.50;99.90
56234;DHT22;42141;53.240;6.580;2023-02-28T08:08:40;3.50;99.90
56234;DHT22;42141;53.240;6.580;2023-02-28T08:11:05;3.50;99.90
56234;DHT22;42141;53.240;6.580;2023-02-28T08:13:31;3.60;99.90
56234;DHT22;42141;53.240;6.580;2023-02-28T08:15:57;4.90;99.90
56234;DHT22;42141;53.240;6.580;2023-02-28T08:18:23;3.70;99.90
56234;DHT22;42141;53.240;6.580;2023-02-28T08:20:49;3.70;99.90
56234;DHT22;42141;53.240;6.580;2023-02-28T08:23:15;3.80;99.90
56234;DHT22;42141;53.240;6.580;2023-02-28T08:25:41;3.80;99.90
56234;DHT22;42141;53.240;6.580;2023-02-28T08:28:06;3.90;99.90
56234;DHT22;42141;53.240;6.580;2023-02-28T08:30:32;3.90;99.90
56234;DHT22;42141;53.240;6.580;2023-02-28T08:32:58;4.90;99.90
56234;DHT22;42141;53.240;6.580;2023-02-28T08:35:24;4.00;99.90
56234;DHT22;42141;53.240;6.580;2023-02-28T08:37:50;4.10;99.90
56234;DHT22;42141;53.240;6.580;2023-02-28T08:40:16;4.20;99.90
56234;DHT22;42141;53.240;6.580;2023-02-28T08:42:49;4.30;99.90
56234;DHT22;42141;53.240;6.580;2023-02-28T08:45:15;4.40;99.90
56234;DHT22;42141;53.240;6.580;2023-02-28T08:47:44;4.60;99.90
56234;DHT22;42141;53.240;6.580;2023-02-28T08:50:10;4.70;99.90
56234;DHT22;42141;53.240;6.580;2023-02-28T08:52:36;5.90;99.90
56234;DHT22;42141;53.240;6.580;2023-02-28T08:55:02;4.80;99.90
56234;DHT22;42141;53.240;6.580;2023-02-28T08:57:28;4.80;99.90
56234;DHT22;42141;53.240;6.580;2023-02-28T08:59:53;4.90;99.90
56234;DHT22;42141;53.240;6.580;2023-02-28T09:02:19;4.90;99.90
56234;DHT22;42141;53.240;6.580;2023-02-28T09:04:45;6.00;99.90
56234;DHT22;42141;53.240;6.580;2023-02-28T09:07:11;5.50;99.90
56234;DHT22;42141;53.240;6.580;2023-02-28T09:09:37;5.20;99.90
56234;DHT22;42141;53.240;6.580;2023-02-28T09:12:03;5.20;99.90
56234;DHT22;42141;53.240;6.580;2023-02-28T09:14:30;5.20;99.90
56234;DHT22;42141;53.240;6.580;2023-02-28T09:16:56;5.30;99.90
56234;DHT22;42141;53.240;6.580;2023-02-28T09:19:22;5.30;99.90
56234;DHT22;42141;53.240;6.580;2023-02-28T09:21:47;5.30;99.90
56234;DHT22;42141;53.240;6.580;2023-02-28T09:24:13;5.30;99.90
56234;DHT22;42141;53.240;6.580;2023-02-28T09:26:40;5.50;99.90
56234;DHT22;42141;53.240;6.580;2023-02-28T09:29:06;5.60;99.90
56234;DHT22;42141;53.240;6.580;2023-02-28T09:31:32;6.70;99.90
56234;DHT22;42141;53.240;6.580;2023-02-28T09:33:58;7.50;99.90
56234;DHT22;42141;53.240;6.580;2023-02-28T09:36:26;6.10;99.90
56234;DHT22;42141;53.240;6.580;2023-02-28T09:38:52;6.20;99.90
56234;DHT22;42141;53.240;6.580;2023-02-28T09:41:21;6.20;99.90
56234;DHT22;42141;53.240;6.580;2023-02-28T09:43:52;6.30;99.90
56234;DHT22;42141;53.240;6.580;2023-02-28T09:46:43;7.10;99.90
56234;DHT22;42141;53.240;6.580;2023-02-28T09:49:22;6.60;99.90
56234;DHT22;42141;53.240;6.580;2023-02-28T09:52:00;6.60;99.90
56234;DHT22;42141;53.240;6.580;2023-02-28T09:54:30;6.70;99.90
56234;DHT22;42141;53.240;6.580;2023-02-28T09:59:54;6.90;99.90
56234;DHT22;42141;53.240;6.580;2023-02-28T10:05:00;7.10;99.90
56234;DHT22;42141;53.240;6.580;2023-02-28T10:10:41;7.00;99.90
56234;DHT22;42141;53.240;6.580;2023-02-28T10:15:53;7.20;99.90
56234;DHT22;42141;53.240;6.580;2023-02-28T10:18:47;7.20;99.90
56234;DHT22;42141;53.240;6.580;2023-02-28T10:21:19;7.30;99.90
56234;DHT22;42141;53.240;6.580;2023-02-28T10:23:46;7.30;99.90
56234;DHT22;42141;53.240;6.580;2023-02-28T10:26:17;8.30;99.90
56234;DHT22;42141;53.240;6.580;2023-02-28T10:28:43;7.50;99.90
56234;DHT22;42141;53.240;6.580;2023-02-28T10:31:15;7.60;99.90
56234;DHT22;42141;53.240;6.580;2023-02-28T10:33:42;7.70;99.90
56234;DHT22;42141;53.240;6.580;2023-02-28T10:36:14;7.70;99.90
56234;DHT22;42141;53.240;6.580;2023-02-28T10:38:43;7.70;99.90
56234;DHT22;42141;53.240;6.580;2023-02-28T10:41:11;7.70;99.90
56234;DHT22;42141;53.240;6.580;2023-02-28T10:43:39;7.80;99.90
56234;DHT22;42141;53.240;6.580;2023-02-28T10:48:40;7.80;99.90
56234;DHT22;42141;53.240;6.580;2023-02-28T10:51:16;7.90;99.90
56234;DHT22;42141;53.240;6.580;2023-02-28T10:53:50;8.00;99.90
56234;DHT22;42141;53.240;6.580;2023-02-28T10:56:18;7.90;99.90
56234;DHT22;42141;53.240;6.580;2023-02-28T11:01:46;8.10;99.90
56234;DHT22;42141;53.240;6.580;2023-02-28T11:07:18;8.20;99.90
56234;DHT22;42141;53.240;6.580;2023-02-28T11:09:52;8.20;99.90
56234;DHT22;42141;53.240;6.580;2023-02-28T11:12:28;8.30;99.90
56234;DHT22;42141;53.240;6.580;2023-02-28T11:14:58;8.40;99.90
56234;DHT22;42141;53.240;6.580;2023-02-28T11:17:27;8.50;99.90
56234;DHT22;42141;53.240;6.580;2023-02-28T11:19:57;8.70;99.90
56234;DHT22;42141;53.240;6.580;2023-02-28T11:22:27;8.80;99.90
56234;DHT22;42141;53.240;6.580;2023-02-28T11:24:56;8.90;99.90
56234;DHT22;42141;53.240;6.580;2023-02-28T11:30:00;9.00;99.90
56234;DHT22;42141;53.240;6.580;2023-02-28T11:32:30;9.00;99.90
56234;DHT22;42141;53.240;6.580;2023-02-28T11:37:36;9.10;99.90
56234;DHT22;42141;53.240;6.580;2023-02-28T11:40:05;9.00;99.90
56234;DHT22;42141;53.240;6.580;2023-02-28T11:42:50;9.00;99.90
56234;DHT22;42141;53.240;6.580;2023-02-28T11:48:22;9.00;99.90
56234;DHT22;42141;53.240;6.580;2023-02-28T11:51:11;8.00;99.90
56234;DHT22;42141;53.240;6.580;2023-02-28T11:53:51;9.10;99.90
56234;DHT22;42141;53.240;6.580;2023-02-28T11:56:31;9.10;99.90
56234;DHT22;42141;53.240;6.580;2023-02-28T12:07:11;8.70;99.90
56234;DHT22;42141;53.240;6.580;2023-02-28T12:26:41;10.10;99.90
56234;DHT22;42141;53.240;6.580;2023-02-28T12:31:50;10.30;99.90
56234;DHT22;42141;53.240;6.580;2023-02-28T12:34:27;10.30;99.90
56234;DHT22;42141;53.240;6.580;2023-02-28T12:36:55;10.20;99.90
56234;DHT22;42141;53.240;6.580;2023-02-28T12:39:28;10.00;99.90
56234;DHT22;42141;53.240;6.580;2023-02-28T12:42:17;9.80;99.90
56234;DHT22;42141;53.240;6.580;2023-02-28T12:44:49;9.60;99.90
56234;DHT22;42141;53.240;6.580;2023-02-28T12:47:18;9.50;99.90
56234;DHT22;42141;53.240;6.580;2023-02-28T12:52:52;9.60;99.90
56234;DHT22;42141;53.240;6.580;2023-02-28T12:58:13;9.60;99.90
56234;DHT22;42141;53.240;6.580;2023-02-28T13:01:01;9.80;99.90
56234;DHT22;42141;53.240;6.580;2023-02-28T13:06:36;10.30;99.90
56234;DHT22;42141;53.240;6.580;2023-02-28T13:09:10;10.50;99.90
56234;DHT22;42141;53.240;6.580;2023-02-28T13:11:50;10.70;99.90
56234;DHT22;42141;53.240;6.580;2023-02-28T13:14:24;11.00;99.90
56234;DHT22;42141;53.240;6.580;2023-02-28T13:19:26;11.20;99.90
56234;DHT22;42141;53.240;6.580;2023-02-28T13:21:53;11.20;99.90
56234;DHT22;42141;53.240;6.580;2023-02-28T13:24:38;11.30;99.90
56234;DHT22;42141;53.240;6.580;2023-02-28T13:29:41;10.90;99.90
56234;DHT22;42141;53.240;6.580;2023-02-28T13:35:34;10.30;99.90
56234;DHT22;42141;53.240;6.580;2023-02-28T13:39:58;9.60;99.90
56234;DHT22;42141;53.240;6.580;2023-02-28T13:42:35;10.30;99.90
56234;DHT22;42141;53.240;6.580;2023-02-28T13:47:59;9.20;99.90
56234;DHT22;42141;53.240;6.580;2023-02-28T13:55:57;9.60;99.90
56234;DHT22;42141;53.240;6.580;2023-02-28T14:02:03;10.00;99.90
56234;DHT22;42141;53.240;6.580;2023-02-28T14:04:50;10.20;99.90
56234;DHT22;42141;53.240;6.580;2023-02-28T14:07:20;10.30;99.90
56234;DHT22;42141;53.240;6.580;2023-02-28T14:10:02;10.30;99.90
56234;DHT22;42141;53.240;6.580;2023-02-28T14:15:36;10.40;99.90
56234;DHT22;42141;53.240;6.580;2023-02-28T14:18:13;10.20;99.90
56234;DHT22;42141;53.240;6.580;2023-02-28T14:20:40;10.00;99.90
56234;DHT22;42141;53.240;6.580;2023-02-28T14:23:31;9.70;99.90
56234;DHT22;42141;53.240;6.580;2023-02-28T14:31:15;9.70;99.90
56234;DHT22;42141;53.240;6.580;2023-02-28T14:36:49;9.90;99.90
56234;DHT22;42141;53.240;6.580;2023-02-28T14:39:21;9.90;99.90
56234;DHT22;42141;53.240;6.580;2023-02-28T14:41:47;10.30;99.90
56234;DHT22;42141;53.240;6.580;2023-02-28T14:44:24;10.00;99.90
56234;DHT22;42141;53.240;6.580;2023-02-28T14:46:58;10.10;99.90
56234;DHT22;42141;53.240;6.580;2023-02-28T14:52:19;10.10;99.90
56234;DHT22;42141;53.240;6.580;2023-02-28T14:54:46;10.10;99.90
56234;DHT22;42141;53.240;6.580;2023-02-28T14:57:28;10.00;99.90
56234;DHT22;42141;53.240;6.580;2023-02-28T15:02:41;10.10;99.90
56234;DHT22;42141;53.240;6.580;2023-02-28T15:05:16;10.00;99.90
56234;DHT22;42141;53.240;6.580;2023-02-28T15:07:45;10.00;99.90
56234;DHT22;42141;53.240;6.580;2023-02-28T15:10:23;10.00;99.90
56234;DHT22;42141;53.240;6.580;2023-02-28T15:12:55;10.00;99.90
56234;DHT22;42141;53.240;6.580;2023-02-28T15:15:33;10.00;99.90
56234;DHT22;42141;53.240;6.580;2023-02-28T15:18:03;9.90;99.90
56234;DHT22;42141;53.240;6.580;2023-02-28T15:20:32;9.80;99.90
56234;DHT22;42141;53.240;6.580;2023-02-28T15:22:58;9.80;99.90
56234;DHT22;42141;53.240;6.580;2023-02-28T15:25:25;9.60;99.90
56234;DHT22;42141;53.240;6.580;2023-02-28T15:27:55;9.50;99.90
56234;DHT22;42141;53.240;6.580;2023-02-28T15:30:30;9.20;99.90
56234;DHT22;42141;53.240;6.580;2023-02-28T15:35:37;8.80;99.90
56234;DHT22;42141;53.240;6.580;2023-02-28T15:38:22;8.60;99.90
56234;DHT22;42141;53.240;6.580;2023-02-28T15:40:57;8.50;99.90
56234;DHT22;42141;53.240;6.580;2023-02-28T15:43:31;8.30;99.90
56234;DHT22;42141;53.240;6.580;2023-02-28T15:48:30;8.00;99.90
56234;DHT22;42141;53.240;6.580;2023-02-28T15:51:08;8.00;99.90
56234;DHT22;42141;53.240;6.580;2023-02-28T15:56:33;7.70;99.90
56234;DHT22;42141;53.240;6.580;2023-02-28T15:59:03;7.60;99.90
56234;DHT22;42141;53.240;6.580;2023-02-28T16:01:38;7.50;99.90
56234;DHT22;42141;53.240;6.580;2023-02-28T16:06:40;7.30;99.90
56234;DHT22;42141;53.240;6.580;2023-02-28T16:09:13;7.20;99.90
56234;DHT22;42141;53.240;6.580;2023-02-28T16:11:43;7.20;99.90
56234;DHT22;42141;53.240;6.580;2023-02-28T16:14:15;7.10;99.90
56234;DHT22;42141;53.240;6.580;2023-02-28T16:16:46;7.00;99.90
56234;DHT22;42141;53.240;6.580;2023-02-28T16:19:13;6.90;99.90
56234;DHT22;42141;53.240;6.580;2023-02-28T16:21:39;6.80;99.90
56234;DHT22;42141;53.240;6.580;2023-02-28T16:24:05;7.60;99.90
56234;DHT22;42141;53.240;6.580;2023-02-28T16:26:31;6.70;99.90
56234;DHT22;42141;53.240;6.580;2023-02-28T16:29:00;6.70;99.90
56234;DHT22;42141;53.240;6.580;2023-02-28T16:31:26;7.30;99.90
56234;DHT22;42141;53.240;6.580;2023-02-28T16:33:51;6.50;99.90
56234;DHT22;42141;53.240;6.580;2023-02-28T16:36:21;6.50;99.90
56234;DHT22;42141;53.240;6.580;2023-02-28T16:38:47;6.40;99.90
56234;DHT22;42141;53.240;6.580;2023-02-28T16:41:18;6.40;99.90
56234;DHT22;42141;53.240;6.580;2023-02-28T16:43:46;6.30;99.90
56234;DHT22;42141;53.240;6.580;2023-02-28T16:46:13;7.30;99.90
56234;DHT22;42141;53.240;6.580;2023-02-28T16:48:39;6.10;99.90
56234;DHT22;42141;53.240;6.580;2023-02-28T16:51:10;6.00;99.90
56234;DHT22;42141;53.240;6.580;2023-02-28T16:53:36;6.00;99.90
56234;DHT22;42141;53.240;6.580;2023-02-28T16:56:02;5.80;99.90
56234;DHT22;42141;53.240;6.580;2023-02-28T16:58:28;5.80;99.90
56234;DHT22;42141;53.240;6.580;2023-02-28T17:00:54;6.00;99.90
56234;DHT22;42141;53.240;6.580;2023-02-28T17:03:23;5.70;99.90
56234;DHT22;42141;53.240;6.580;2023-02-28T17:05:49;5.60;99.90
56234;DHT22;42141;53.240;6.580;2023-02-28T17:08:15;5.50;99.90
56234;DHT22;42141;53.240;6.580;2023-02-28T17:10:41;5.50;99.90
56234;DHT22;42141;53.240;6.580;2023-02-28T17:13:07;6.50;99.90
56234;DHT22;42141;53.240;6.580;2023-02-28T17:15:33;5.30;99.90
56234;DHT22;42141;53.240;6.580;2023-02-28T17:17:59;6.80;99.90
56234;DHT22;42141;53.240;6.580;2023-02-28T17:20:26;5.20;99.90
56234;DHT22;42141;53.240;6.580;2023-02-28T17:22:52;5.10;99.90
56234;DHT22;42141;53.240;6.580;2023-02-28T17:25:19;6.20;99.90
56234;DHT22;42141;53.240;6.580;2023-02-28T17:27:45;4.90;99.90
56234;DHT22;42141;53.240;6.580;2023-02-28T17:30:25;5.40;99.90
56234;DHT22;42141;53.240;6.580;2023-02-28T17:32:54;5.80;99.90
56234;DHT22;42141;53.240;6.580;2023-02-28T17:35:19;4.70;99.90
56234;DHT22;42141;53.240;6.580;2023-02-28T17:37:45;4.60;99.90
56234;DHT22;42141;53.240;6.580;2023-02-28T17:40:16;4.50;99.90
56234;DHT22;42141;53.240;6.580;2023-02-28T17:42:43;4.50;99.90
56234;DHT22;42141;53.240;6.580;2023-02-28T17:45:10;4.40;99.90
56234;DHT22;42141;53.240;6.580;2023-02-28T17:47:36;4.30;99.90
56234;DHT22;42141;53.240;6.580;2023-02-28T17:50:02;4.30;99.90
56234;DHT22;42141;53.240;6.580;2023-02-28T17:52:28;4.20;99.90
56234;DHT22;42141;53.240;6.580;2023-02-28T17:54:56;4.20;99.90
56234;DHT22;42141;53.240;6.580;2023-02-28T17:57:21;4.20;99.90
56234;DHT22;42141;53.240;6.580;2023-02-28T17:59:47;4.10;99.90
56234;DHT22;42141;53.240;6.580;2023-02-28T18:02:13;4.00;99.90
56234;DHT22;42141;53.240;6.580;2023-02-28T18:04:40;4.10;99.90
56234;DHT22;42141;53.240;6.580;2023-02-28T18:07:08;4.50;99.90
56234;DHT22;42141;53.240;6.580;2023-02-28T18:09:35;4.00;99.90
56234;DHT22;42141;53.240;6.580;2023-02-28T18:12:00;4.00;99.90
56234;DHT22;42141;53.240;6.580;2023-02-28T18:14:26;4.30;99.90
56234;DHT22;42141;53.240;6.580;2023-02-28T18:16:53;3.90;99.90
56234;DHT22;42141;53.240;6.580;2023-02-28T18:19:20;4.60;99.90
56234;DHT22;42141;53.240;6.580;2023-02-28T18:21:51;5.20;99.90
56234;DHT22;42141;53.240;6.580;2023-02-28T18:24:19;4.80;99.90
56234;DHT22;42141;53.240;6.580;2023-02-28T18:26:45;4.80;99.90